createdAt,value
2022-11-12T00:00:24.517Z,102674.80
2022-11-12T00:03:15.117Z,102678.00
2022-11-12T00:06:02.853Z,102678.80
2022-11-12T00:08:50.071Z,102677.80
2022-11-12T00:11:37.295Z,102681.00
2022-11-12T00:14:24.617Z,102678.20
2022-11-12T00:17:12.145Z,102682.80
2022-11-12T00:19:59.572Z,102675.60
2022-11-12T00:22:46.997Z,102678.20
2022-11-12T00:25:34.936Z,102677.00
2022-11-12T00:28:22.158Z,102678.40
2022-11-12T00:31:11.780Z,102677.60
2022-11-12T00:33:59.469Z,102677.20
2022-11-12T00:36:46.689Z,102676.60
2022-11-12T00:39:34.114Z,102679.80
2022-11-12T00:42:21.543Z,102678.60
2022-11-12T00:45:09.929Z,102676.80
2022-11-12T00:47:57.828Z,102675.40
2022-11-12T00:50:45.050Z,102680.00
2022-11-12T00:53:33.371Z,102680.00
2022-11-12T00:56:20.414Z,102679.40
2022-11-12T00:59:07.840Z,102679.40
2022-11-12T01:01:55.266Z,102684.60
2022-11-12T01:04:42.815Z,102679.40
2022-11-12T01:07:30.325Z,102676.80
2022-11-12T01:10:17.750Z,102677.60
2022-11-12T01:13:04.970Z,102677.00
2022-11-12T01:15:52.500Z,102679.60
2022-11-12T01:18:40.543Z,102676.00
2022-11-12T01:21:31.403Z,102669.80
2022-11-12T01:24:18.773Z,102669.60
2022-11-12T01:27:06.405Z,102671.00
2022-11-12T01:29:53.936Z,102671.60
2022-11-12T01:32:41.359Z,102668.20
2022-11-12T01:35:28.594Z,102666.40
2022-11-12T01:38:16.015Z,102664.80
2022-11-12T01:41:05.072Z,102669.80
2022-11-12T01:44:29.465Z,102676.00
2022-11-12T01:47:33.586Z,102674.60
2022-11-12T01:50:27.309Z,102675.40
2022-11-12T01:53:15.093Z,102683.00
2022-11-12T01:56:05.541Z,102680.20
2022-11-12T01:59:02.604Z,102681.80
2022-11-12T02:01:50.168Z,102684.00
2022-11-12T02:04:40.959Z,102687.00
2022-11-12T02:07:29.817Z,102685.60
2022-11-12T02:10:17.268Z,102681.40
2022-11-12T02:13:23.329Z,102687.00
2022-11-12T02:16:11.165Z,102690.60
2022-11-12T02:18:59.041Z,102690.40
2022-11-12T02:21:47.251Z,102694.20
2022-11-12T02:24:37.064Z,102697.00
2022-11-12T02:27:24.759Z,102700.60
2022-11-12T02:30:12.898Z,102703.60
2022-11-12T02:33:00.942Z,102704.40
2022-11-12T02:35:48.171Z,102706.00
2022-11-12T02:38:35.487Z,102704.00
2022-11-12T02:41:23.218Z,102709.80
2022-11-12T02:44:10.848Z,102708.40
2022-11-12T02:46:58.069Z,102712.40
2022-11-12T02:49:45.291Z,102715.40
2022-11-12T02:52:33.023Z,102716.80
2022-11-12T02:55:20.758Z,102721.00
2022-11-12T02:58:08.183Z,102727.40
2022-11-12T03:00:56.379Z,102734.80
2022-11-12T03:03:43.651Z,102734.40
2022-11-12T03:06:31.077Z,102743.80
2022-11-12T03:09:18.196Z,102742.20
2022-11-12T03:12:06.135Z,102747.40
2022-11-12T03:14:53.156Z,102746.00
2022-11-12T03:17:40.476Z,102742.40
2022-11-12T03:20:28.741Z,102740.80
2022-11-12T03:23:15.948Z,102742.00
2022-11-12T03:26:05.626Z,102747.80
2022-11-12T03:28:53.154Z,102748.20
2022-11-12T03:31:40.575Z,102751.80
2022-11-12T03:34:27.798Z,102758.40
2022-11-12T03:37:15.121Z,102761.40
2022-11-12T03:40:02.245Z,102769.20
2022-11-12T03:42:52.284Z,102764.80
2022-11-12T03:45:39.657Z,102758.20
2022-11-12T03:48:27.208Z,102762.00
2022-11-12T03:51:16.658Z,102757.40
2022-11-12T03:54:04.598Z,102755.60
2022-11-12T03:56:51.922Z,102754.40
2022-11-12T03:59:39.243Z,102760.80
2022-11-12T04:02:27.081Z,102760.60
2022-11-12T04:05:33.862Z,102762.20
2022-11-12T04:08:36.256Z,102758.20
2022-11-12T04:11:24.992Z,102753.20
2022-11-12T04:14:12.418Z,102756.80
2022-11-12T04:17:18.481Z,102755.00
2022-11-12T04:20:25.673Z,102754.20
2022-11-12T04:23:13.209Z,102750.00
2022-11-12T04:26:19.468Z,102757.80
2022-11-12T04:29:25.532Z,102752.40
2022-11-12T04:32:12.958Z,102752.40
2022-11-12T04:35:01.297Z,102753.40
2022-11-12T04:37:49.347Z,102753.80
2022-11-12T04:40:55.717Z,102756.60
2022-11-12T04:44:01.780Z,102757.60
2022-11-12T04:46:49.162Z,102760.40
2022-11-12T04:49:36.530Z,102750.40
2022-11-12T04:52:24.161Z,102760.40
2022-11-12T04:55:12.102Z,102766.40
2022-11-12T04:58:01.005Z,102768.60
2022-11-12T05:00:50.007Z,102768.60
2022-11-12T05:03:37.146Z,102776.60
2022-11-12T05:06:43.140Z,102771.00
2022-11-12T05:09:30.940Z,102782.00
2022-11-12T05:12:18.470Z,102778.00
2022-11-12T05:15:06.922Z,102785.20
2022-11-12T05:17:54.244Z,102789.20
2022-11-12T05:20:41.670Z,102792.80
2022-11-12T05:23:29.192Z,102789.80
2022-11-12T05:26:16.727Z,102791.20
2022-11-12T05:29:08.671Z,102790.60
2022-11-12T05:31:56.499Z,102786.80
2022-11-12T05:34:43.819Z,102792.80
2022-11-12T05:37:31.243Z,102790.60
2022-11-12T05:40:18.467Z,102797.60
2022-11-12T05:43:05.688Z,102791.40
2022-11-12T05:45:53.012Z,102794.20
2022-11-12T05:48:40.334Z,102791.40
2022-11-12T05:51:27.761Z,102794.40
2022-11-12T05:54:15.187Z,102796.40
2022-11-12T05:57:02.622Z,102798.80
2022-11-12T05:59:49.834Z,102801.20
2022-11-12T06:02:37.293Z,102802.00
2022-11-12T06:05:24.790Z,102809.00
2022-11-12T06:08:12.216Z,102806.20
2022-11-12T06:10:59.641Z,102809.00
2022-11-12T06:13:46.968Z,102813.80
2022-11-12T06:16:34.495Z,102814.00
2022-11-12T06:19:21.614Z,102818.40
2022-11-12T06:22:08.936Z,102819.20
2022-11-12T06:24:56.363Z,102821.60
2022-11-12T06:27:43.688Z,102827.60
2022-11-12T06:30:31.012Z,102829.00
2022-11-12T06:33:18.538Z,102820.60
2022-11-12T06:36:07.496Z,102824.00
2022-11-12T06:38:54.929Z,102828.20
2022-11-12T06:41:42.254Z,102823.60
2022-11-12T06:44:29.449Z,102831.40
2022-11-12T06:47:17.006Z,102834.00
2022-11-12T06:50:05.247Z,102837.20
2022-11-12T06:52:58.446Z,102842.40
2022-11-12T06:55:46.448Z,102844.40
2022-11-12T06:58:34.492Z,102853.20
2022-11-12T07:01:22.171Z,102843.20
2022-11-12T07:04:10.709Z,102849.20
2022-11-12T07:06:57.806Z,102850.20
2022-11-12T07:09:45.116Z,102853.00
2022-11-12T07:12:32.543Z,102860.20
2022-11-12T07:15:19.672Z,102850.00
2022-11-12T07:18:06.987Z,102852.60
2022-11-12T07:21:02.828Z,102849.60
2022-11-12T07:23:50.338Z,102852.60
2022-11-12T07:26:37.661Z,102852.40
2022-11-12T07:29:46.348Z,102853.00
2022-11-12T07:32:32.484Z,102851.20
2022-11-12T07:35:19.705Z,102851.40
2022-11-12T07:38:07.130Z,102846.40
2022-11-12T07:41:11.759Z,102848.00
2022-11-12T07:43:59.291Z,102852.80
2022-11-12T07:46:46.304Z,102852.60
2022-11-12T07:49:33.733Z,102849.60
2022-11-12T07:52:21.787Z,102851.00
2022-11-12T07:55:09.588Z,102847.20
2022-11-12T07:58:00.549Z,102855.20
2022-11-12T08:00:47.945Z,102843.80
2022-11-12T08:03:35.580Z,102844.60
2022-11-12T08:06:23.975Z,102835.60
2022-11-12T08:09:11.658Z,102838.40
2022-11-12T08:11:59.187Z,102841.60
2022-11-12T08:14:46.510Z,102845.00
2022-11-12T08:17:38.951Z,102842.20
2022-11-12T08:20:25.967Z,102833.20
2022-11-12T08:23:13.707Z,102833.20
2022-11-12T08:26:04.168Z,102833.80
2022-11-12T08:28:52.145Z,102834.80
2022-11-12T08:31:39.568Z,102838.60
2022-11-12T08:34:26.997Z,102843.40
2022-11-12T08:37:14.135Z,102841.00
2022-11-12T08:40:01.754Z,102837.00
2022-11-12T08:42:48.934Z,102844.80
2022-11-12T08:45:40.087Z,102846.40
2022-11-12T08:48:29.317Z,102852.20
2022-11-12T08:51:17.387Z,102840.40
2022-11-12T08:54:05.124Z,102853.20
2022-11-12T08:56:52.544Z,102848.00
2022-11-12T08:59:40.075Z,102842.00
2022-11-12T09:02:27.398Z,102842.40
2022-11-12T09:05:14.822Z,102834.60
2022-11-12T09:08:06.886Z,102831.40
2022-11-12T09:10:54.489Z,102836.20
2022-11-12T09:13:42.181Z,102830.00
2022-11-12T09:16:30.059Z,102827.40
2022-11-12T09:19:17.505Z,102833.00
2022-11-12T09:22:05.319Z,102825.80
2022-11-12T09:24:52.543Z,102817.20
2022-11-12T09:27:43.187Z,102824.00
2022-11-12T09:30:37.039Z,102828.60
2022-11-12T09:33:30.087Z,102816.00
2022-11-12T09:36:18.530Z,102817.60
2022-11-12T09:39:05.764Z,102827.40
2022-11-12T09:41:55.536Z,102817.60
2022-11-12T09:45:18.404Z,102818.00
2022-11-12T09:48:11.747Z,102827.60
2022-11-12T09:51:12.596Z,102818.20
2022-11-12T09:54:22.652Z,102819.20
2022-11-12T09:57:14.890Z,102818.60
2022-11-12T10:00:03.715Z,102825.80
2022-11-12T10:03:07.775Z,102826.40
2022-11-12T10:06:35.898Z,102818.20
2022-11-12T10:09:30.280Z,102819.00
2022-11-12T10:12:47.877Z,102826.40
2022-11-12T10:16:24.052Z,102816.60
2022-11-12T10:19:40.555Z,102819.80
2022-11-12T10:23:07.602Z,102820.60
2022-11-12T10:26:09.570Z,102810.20
2022-11-12T10:29:08.284Z,102809.80
2022-11-12T10:31:56.001Z,102816.00
2022-11-12T10:34:43.420Z,102800.80
2022-11-12T10:38:04.641Z,102794.00
2022-11-12T10:40:52.391Z,102805.40
2022-11-12T10:43:53.996Z,102787.20
2022-11-12T10:46:41.458Z,102787.20
2022-11-12T10:49:29.353Z,102785.40
2022-11-12T10:52:24.798Z,102783.00
2022-11-12T10:55:37.149Z,102780.80
2022-11-12T10:58:24.924Z,102773.80
2022-11-12T11:01:18.012Z,102759.60
2022-11-12T11:04:15.680Z,102773.40
2022-11-12T11:07:16.448Z,102767.40
2022-11-12T11:10:05.017Z,102764.80
2022-11-12T11:13:23.119Z,102754.80
2022-11-12T11:16:21.309Z,102756.80
2022-11-12T11:19:09.603Z,102761.60
2022-11-12T11:22:23.409Z,102749.20
2022-11-12T11:25:45.541Z,102759.00
2022-11-12T11:28:59.785Z,102754.40
2022-11-12T11:31:57.963Z,102751.40
2022-11-12T11:35:05.073Z,102752.20
2022-11-12T11:38:08.860Z,102748.00
2022-11-12T11:41:02.737Z,102743.00
2022-11-12T11:44:03.518Z,102746.00
2022-11-12T11:47:50.551Z,102752.40
2022-11-12T11:50:56.359Z,102738.80
2022-11-12T11:54:15.528Z,102742.80
2022-11-12T11:57:12.602Z,102737.20
2022-11-12T12:00:21.495Z,102721.80
2022-11-12T12:03:41.553Z,102721.40
2022-11-12T12:06:33.127Z,102720.00
2022-11-12T12:09:38.370Z,102714.60
2022-11-12T12:12:40.439Z,102721.80
2022-11-12T12:15:52.648Z,102718.60
2022-11-12T12:19:03.627Z,102716.20
2022-11-12T12:21:52.764Z,102723.20
2022-11-12T12:24:58.476Z,102724.20
2022-11-12T12:28:13.224Z,102717.00
2022-11-12T12:31:09.082Z,102737.60
2022-11-12T12:34:06.910Z,102721.20
2022-11-12T12:37:21.181Z,102731.20
2022-11-12T12:40:43.613Z,102718.60
2022-11-12T12:43:53.154Z,102729.20
2022-11-12T12:46:58.647Z,102734.00
2022-11-12T12:49:49.553Z,102733.00
2022-11-12T12:53:25.684Z,102735.20
2022-11-12T12:56:15.770Z,102736.80
2022-11-12T12:59:04.222Z,102732.60
2022-11-12T13:02:01.994Z,102719.60
2022-11-12T13:04:57.580Z,102728.00
2022-11-12T13:07:50.064Z,102726.80
2022-11-12T13:10:37.384Z,102726.40
2022-11-12T13:13:37.835Z,102726.20
2022-11-12T13:16:51.554Z,102720.60
2022-11-12T13:20:08.758Z,102724.40
2022-11-12T13:22:56.428Z,102725.20
2022-11-12T13:25:44.038Z,102730.00
2022-11-12T13:28:31.903Z,102729.60
2022-11-12T13:31:30.391Z,102727.00
2022-11-12T13:34:32.955Z,102735.60
2022-11-12T13:37:23.545Z,102732.40
2022-11-12T13:40:24.488Z,102724.00
2022-11-12T13:43:35.986Z,102724.00
2022-11-12T13:46:34.359Z,102724.20
2022-11-12T13:49:22.400Z,102721.20
2022-11-12T13:52:14.699Z,102726.40
2022-11-12T13:55:18.040Z,102729.80
2022-11-12T13:58:18.711Z,102734.20
2022-11-12T14:01:08.074Z,102735.60
2022-11-12T14:03:55.378Z,102736.20
2022-11-12T14:06:57.559Z,102735.00
2022-11-12T14:10:34.943Z,102739.00
2022-11-12T14:13:56.777Z,102740.00
2022-11-12T14:17:00.387Z,102745.00
2022-11-12T14:20:19.044Z,102745.80
2022-11-12T14:23:20.074Z,102736.40
2022-11-12T14:26:13.318Z,102743.20
2022-11-12T14:29:01.229Z,102740.80
2022-11-12T14:32:03.262Z,102742.20
2022-11-12T14:34:50.786Z,102739.80
2022-11-12T14:37:43.280Z,102742.60
2022-11-12T14:40:55.872Z,102743.00
2022-11-12T14:43:46.610Z,102751.40
2022-11-12T14:46:45.345Z,102742.80
2022-11-12T14:49:44.870Z,102739.80
2022-11-12T14:52:43.509Z,102741.60
2022-11-12T14:55:36.087Z,102741.00
2022-11-12T14:58:25.285Z,102738.80
2022-11-12T15:02:08.792Z,102741.60
2022-11-12T15:04:56.004Z,102729.00
2022-11-12T15:08:10.992Z,102730.00
2022-11-12T15:11:22.486Z,102727.60
2022-11-12T15:14:22.045Z,102722.40
2022-11-12T15:17:34.914Z,102715.40
2022-11-12T15:20:22.508Z,102719.20
2022-11-12T15:23:19.803Z,102716.40
2022-11-12T15:26:23.513Z,102715.20
2022-11-12T15:29:10.741Z,102709.40
2022-11-12T15:32:24.101Z,102708.40
2022-11-12T15:35:22.189Z,102710.20
2022-11-12T15:38:38.850Z,102715.80
2022-11-12T15:41:30.767Z,102715.00
2022-11-12T15:44:18.418Z,102712.80
2022-11-12T15:47:06.457Z,102710.00
2022-11-12T15:49:59.427Z,102714.60
2022-11-12T15:52:47.395Z,102717.60
2022-11-12T15:55:38.055Z,102719.80
2022-11-12T15:58:34.110Z,102723.60
2022-11-12T16:01:21.788Z,102723.60
2022-11-12T16:04:14.158Z,102725.20
2022-11-12T16:07:01.750Z,102730.00
2022-11-12T16:09:49.439Z,102729.80
2022-11-12T16:12:36.849Z,102729.00
2022-11-12T16:15:25.841Z,102728.80
2022-11-12T16:18:13.133Z,102722.80
2022-11-12T16:21:00.380Z,102725.80
2022-11-12T16:23:48.095Z,102728.60
2022-11-12T16:26:37.071Z,102729.60
2022-11-12T16:29:24.272Z,102730.20
2022-11-12T16:32:15.592Z,102734.20
2022-11-12T16:35:03.219Z,102731.60
2022-11-12T16:37:53.924Z,102731.00
2022-11-12T16:40:42.376Z,102733.40
2022-11-12T16:43:30.350Z,102730.40
2022-11-12T16:46:39.612Z,102730.40
2022-11-12T16:49:27.081Z,102731.20
2022-11-12T16:52:14.815Z,102733.40
2022-11-12T16:55:04.765Z,102739.40
2022-11-12T16:57:52.531Z,102736.40
2022-11-12T17:00:50.450Z,102735.40
2022-11-12T17:03:38.239Z,102733.80
2022-11-12T17:06:41.018Z,102737.40
2022-11-12T17:09:28.553Z,102743.40
2022-11-12T17:12:15.983Z,102753.00
2022-11-12T17:15:03.816Z,102751.80
2022-11-12T17:17:54.513Z,102742.80
2022-11-12T17:20:42.195Z,102750.20
2022-11-12T17:23:30.935Z,102749.60
2022-11-12T17:26:20.795Z,102752.40
2022-11-12T17:29:08.604Z,102750.40
2022-11-12T17:31:55.950Z,102747.00
2022-11-12T17:34:43.582Z,102749.20
2022-11-12T17:37:31.146Z,102748.80
2022-11-12T17:40:18.537Z,102752.20
2022-11-12T17:43:05.761Z,102748.60
2022-11-12T17:45:55.227Z,102743.40
2022-11-12T17:48:43.069Z,102742.80
2022-11-12T17:51:30.291Z,102737.60
2022-11-12T17:54:17.935Z,102736.20
2022-11-12T17:57:05.656Z,102742.00
2022-11-12T17:59:53.527Z,102733.40
2022-11-12T18:02:40.611Z,102732.60
2022-11-12T18:05:28.038Z,102737.60
2022-11-12T18:08:16.077Z,102736.40
2022-11-12T18:11:06.270Z,102733.60
2022-11-12T18:13:54.006Z,102729.40
2022-11-12T18:16:41.859Z,102733.60
2022-11-12T18:19:29.577Z,102730.00
2022-11-12T18:22:17.307Z,102724.40
2022-11-12T18:25:07.632Z,102722.60
2022-11-12T18:27:55.230Z,102719.20
2022-11-12T18:30:42.656Z,102713.80
2022-11-12T18:33:31.154Z,102718.20
2022-11-12T18:36:24.410Z,102712.20
2022-11-12T18:39:12.106Z,102719.40
2022-11-12T18:41:59.426Z,102721.80
2022-11-12T18:44:46.865Z,102717.80
2022-11-12T18:47:34.588Z,102721.20
2022-11-12T18:50:22.220Z,102722.20
2022-11-12T18:53:09.602Z,102721.00
2022-11-12T18:56:02.603Z,102732.80
2022-11-12T18:58:50.638Z,102730.00
2022-11-12T19:01:38.619Z,102738.20
2022-11-12T19:04:26.619Z,102735.20
2022-11-12T19:07:14.272Z,102739.20
2022-11-12T19:10:14.715Z,102741.60
2022-11-12T19:13:05.259Z,102736.60
2022-11-12T19:15:52.811Z,102732.40
2022-11-12T19:18:42.152Z,102726.60
2022-11-12T19:21:29.608Z,102727.80
2022-11-12T19:24:17.551Z,102723.60
2022-11-12T19:27:05.301Z,102725.40
2022-11-12T19:29:52.808Z,102727.00
2022-11-12T19:32:40.471Z,102727.20
2022-11-12T19:35:28.082Z,102725.20
2022-11-12T19:38:15.805Z,102731.00
2022-11-12T19:41:19.481Z,102730.00
2022-11-12T19:44:07.662Z,102730.20
2022-11-12T19:46:55.393Z,102727.20
2022-11-12T19:49:43.145Z,102731.40
2022-11-12T19:52:30.656Z,102728.60
2022-11-12T19:55:18.709Z,102732.00
2022-11-12T19:58:08.349Z,102727.80
2022-11-12T20:01:09.916Z,102729.40
2022-11-12T20:03:59.100Z,102731.40
2022-11-12T20:06:47.000Z,102732.40
2022-11-12T20:09:34.581Z,102734.40
2022-11-12T20:12:22.218Z,102732.40
2022-11-12T20:15:10.671Z,102729.60
2022-11-12T20:17:58.190Z,102722.20
2022-11-12T20:21:05.273Z,102724.40
2022-11-12T20:23:53.202Z,102729.40
2022-11-12T20:26:40.733Z,102733.80
2022-11-12T20:29:28.256Z,102735.80
2022-11-12T20:32:16.093Z,102741.20
2022-11-12T20:35:08.537Z,102737.60
2022-11-12T20:38:00.288Z,102733.80
2022-11-12T20:40:47.833Z,102731.20
2022-11-12T20:43:35.957Z,102737.20
2022-11-12T20:46:25.234Z,102737.60
2022-11-12T20:49:12.425Z,102737.00
2022-11-12T20:51:59.662Z,102737.80
2022-11-12T20:54:46.770Z,102734.60
2022-11-12T20:57:34.191Z,102738.00
2022-11-12T21:00:24.282Z,102734.40
2022-11-12T21:03:11.916Z,102730.60
2022-11-12T21:06:03.868Z,102726.00
2022-11-12T21:08:51.883Z,102723.40
2022-11-12T21:11:39.423Z,102723.60
2022-11-12T21:14:26.531Z,102732.40
2022-11-12T21:17:13.651Z,102735.80
2022-11-12T21:20:00.881Z,102729.20
2022-11-12T21:22:48.483Z,102721.60
2022-11-12T21:25:38.366Z,102718.20
2022-11-12T21:28:28.857Z,102717.80
2022-11-12T21:31:32.594Z,102720.60
2022-11-12T21:34:19.610Z,102723.40
2022-11-12T21:37:07.035Z,102721.80
2022-11-12T21:39:54.161Z,102719.60
2022-11-12T21:42:45.374Z,102718.60
2022-11-12T21:45:32.697Z,102714.80
2022-11-12T21:48:20.329Z,102717.80
2022-11-12T21:51:12.185Z,102715.40
2022-11-12T21:54:06.779Z,102712.80
2022-11-12T21:56:54.279Z,102714.40
2022-11-12T21:59:41.501Z,102712.20
2022-11-12T22:02:29.083Z,102709.40
2022-11-12T22:05:16.458Z,102706.60
2022-11-12T22:08:03.778Z,102716.80
2022-11-12T22:10:51.000Z,102711.00
2022-11-12T22:13:38.734Z,102708.80
2022-11-12T22:16:29.514Z,102702.40
2022-11-12T22:19:19.574Z,102696.60
2022-11-12T22:22:07.260Z,102699.80
2022-11-12T22:24:54.276Z,102693.00
2022-11-12T22:27:41.702Z,102692.20
2022-11-12T22:30:29.231Z,102687.20
2022-11-12T22:33:16.574Z,102690.80
2022-11-12T22:36:11.274Z,102684.60
2022-11-12T22:38:59.086Z,102688.00
2022-11-12T22:41:46.992Z,102692.20
2022-11-12T22:44:34.348Z,102682.60
2022-11-12T22:47:21.774Z,102681.40
2022-11-12T22:50:10.536Z,102681.60
2022-11-12T22:52:57.857Z,102684.60
2022-11-12T22:55:45.179Z,102683.80
2022-11-12T22:58:36.993Z,102673.80
2022-11-12T23:01:31.278Z,102669.80
2022-11-12T23:04:19.029Z,102674.60
2022-11-12T23:07:06.468Z,102672.60
2022-11-12T23:09:54.087Z,102668.60
2022-11-12T23:12:41.411Z,102662.60
2022-11-12T23:15:32.641Z,102670.40
2022-11-12T23:18:20.769Z,102663.80
2022-11-12T23:21:12.450Z,102661.20
2022-11-12T23:24:00.166Z,102666.80
2022-11-12T23:26:47.246Z,102658.80
2022-11-12T23:29:34.981Z,102651.60
2022-11-12T23:32:22.408Z,102657.20
2022-11-12T23:35:11.268Z,102656.80
2022-11-12T23:37:58.897Z,102648.80
2022-11-12T23:40:56.430Z,102646.00
2022-11-12T23:43:44.424Z,102648.00
2022-11-12T23:46:31.621Z,102639.40
2022-11-12T23:49:18.944Z,102633.80
2022-11-12T23:52:06.169Z,102637.40
2022-11-12T23:54:53.390Z,102629.20
2022-11-12T23:57:40.918Z,102624.80
